createdAt,value
2022-09-04T00:00:57.540Z,12.61
2022-09-04T00:02:36.208Z,12.56
2022-09-04T00:03:43.179Z,12.56
2022-09-04T00:04:50.331Z,12.56
2022-09-04T00:06:00.400Z,12.57
2022-09-04T00:07:19.107Z,12.57
2022-09-04T00:08:26.184Z,12.57
2022-09-04T00:09:33.171Z,12.55
2022-09-04T00:10:40.243Z,12.55
2022-09-04T00:11:50.036Z,12.55
2022-09-04T00:13:11.983Z,12.56
2022-09-04T00:14:21.241Z,12.55
2022-09-04T00:15:28.255Z,12.57
2022-09-04T00:16:47.147Z,12.61
2022-09-04T00:17:56.856Z,12.58
2022-09-04T00:19:18.627Z,12.56
2022-09-04T00:20:29.103Z,12.57
2022-09-04T00:21:41.708Z,12.54
2022-09-04T00:22:48.676Z,12.53
2022-09-04T00:24:01.460Z,12.50
2022-09-04T00:25:20.389Z,12.50
2022-09-04T00:26:43.444Z,12.50
2022-09-04T00:27:50.354Z,12.50
2022-09-04T00:29:03.026Z,12.47
2022-09-04T00:30:10.340Z,12.43
2022-09-04T00:31:38.277Z,12.45
2022-09-04T00:32:45.641Z,12.43
2022-09-04T00:34:10.383Z,12.43
2022-09-04T00:35:29.343Z,12.36
2022-09-04T00:36:36.630Z,12.33
2022-09-04T00:37:46.402Z,12.33
2022-09-04T00:38:56.059Z,12.29
2022-09-04T00:40:03.106Z,12.28
2022-09-04T00:41:26.560Z,12.27
2022-09-04T00:42:53.196Z,12.27
2022-09-04T00:44:19.192Z,12.21
2022-09-04T00:45:43.916Z,12.21
2022-09-04T00:46:59.508Z,12.21
2022-09-04T00:48:39.260Z,12.21
2022-09-04T00:50:22.046Z,12.12
2022-09-04T00:51:43.807Z,12.12
2022-09-04T00:53:17.495Z,12.06
2022-09-04T00:54:45.031Z,12.01
2022-09-04T00:56:00.570Z,12.03
2022-09-04T00:57:37.736Z,12.02
2022-09-04T00:58:47.199Z,12.02
2022-09-04T01:00:08.848Z,11.90
2022-09-04T01:01:17.372Z,11.90
2022-09-04T01:02:42.253Z,12.00
2022-09-04T01:04:05.520Z,11.94
2022-09-04T01:05:22.466Z,11.94
2022-09-04T01:06:36.024Z,11.92
2022-09-04T01:07:46.418Z,11.89
2022-09-04T01:09:12.947Z,11.86
2022-09-04T01:10:29.378Z,11.86
2022-09-04T01:11:52.707Z,11.84
2022-09-04T01:13:28.447Z,11.78
2022-09-04T01:14:44.316Z,11.78
2022-09-04T01:16:07.853Z,11.76
2022-09-04T01:17:35.609Z,11.76
2022-09-04T01:18:51.680Z,11.71
2022-09-04T01:20:31.660Z,11.70
2022-09-04T01:21:56.365Z,11.70
2022-09-04T01:23:03.279Z,11.70
2022-09-04T01:24:31.386Z,11.70
2022-09-04T01:25:54.866Z,11.70
2022-09-04T01:27:18.359Z,11.65
2022-09-04T01:28:32.507Z,11.62
2022-09-04T01:29:54.328Z,11.60
2022-09-04T01:31:01.442Z,11.60
2022-09-04T01:32:17.173Z,11.60
2022-09-04T01:33:26.940Z,11.58
2022-09-04T01:34:54.708Z,11.59
2022-09-04T01:36:25.897Z,11.52
2022-09-04T01:37:46.316Z,11.49
2022-09-04T01:39:01.966Z,11.49
2022-09-04T01:40:35.612Z,11.50
2022-09-04T01:41:38.655Z,11.50
2022-09-04T01:43:09.454Z,11.41
2022-09-04T01:44:13.590Z,11.40
2022-09-04T01:45:20.552Z,11.41
2022-09-04T01:46:31.833Z,11.41
2022-09-04T01:47:44.550Z,11.36
2022-09-04T01:48:54.387Z,11.23
2022-09-04T01:50:01.311Z,11.35
2022-09-04T01:51:08.294Z,11.33
2022-09-04T01:52:15.198Z,11.34
2022-09-04T01:53:28.199Z,11.34
2022-09-04T01:54:45.076Z,11.32
2022-09-04T01:56:03.535Z,11.32
2022-09-04T01:57:10.500Z,11.28
2022-09-04T01:58:23.786Z,11.28
2022-09-04T01:59:30.835Z,11.28
2022-09-04T02:00:58.151Z,11.28
2022-09-04T02:02:12.224Z,11.26
2022-09-04T02:03:35.351Z,11.20
2022-09-04T02:04:42.351Z,11.19
2022-09-04T02:05:49.347Z,11.17
2022-09-04T02:07:08.835Z,11.20
2022-09-04T02:08:30.465Z,11.17
2022-09-04T02:09:50.067Z,11.17
2022-09-04T02:11:04.743Z,11.17
2022-09-04T02:12:20.365Z,11.07
2022-09-04T02:13:45.108Z,11.07
2022-09-04T02:14:52.139Z,11.06
2022-09-04T02:16:08.337Z,10.99
2022-09-04T02:17:20.470Z,10.97
2022-09-04T02:18:27.485Z,10.97
2022-09-04T02:19:58.587Z,10.96
2022-09-04T02:21:07.121Z,10.90
2022-09-04T02:22:22.649Z,10.90
2022-09-04T02:23:41.620Z,10.84
2022-09-04T02:25:12.874Z,10.82
2022-09-04T02:26:53.226Z,10.79
2022-09-04T02:28:01.664Z,10.79
2022-09-04T02:29:14.105Z,10.74
2022-09-04T02:30:20.406Z,10.72
2022-09-04T02:31:48.575Z,10.71
2022-09-04T02:33:11.970Z,10.70
2022-09-04T02:34:39.671Z,10.70
2022-09-04T02:35:58.711Z,10.66
2022-09-04T02:37:11.943Z,10.60
2022-09-04T02:38:27.330Z,10.59
2022-09-04T02:39:40.023Z,10.59
2022-09-04T02:41:15.554Z,10.59
2022-09-04T02:42:46.709Z,10.57
2022-09-04T02:44:15.769Z,10.59
2022-09-04T02:45:43.321Z,10.56
2022-09-04T02:47:06.815Z,10.57
2022-09-04T02:48:33.318Z,10.52
2022-09-04T02:50:00.596Z,10.53
2022-09-04T02:51:12.710Z,10.53
2022-09-04T02:52:22.370Z,10.53
2022-09-04T02:53:52.028Z,10.45
2022-09-04T02:55:16.903Z,10.43
2022-09-04T02:56:35.470Z,10.43
2022-09-04T02:58:09.535Z,10.38
2022-09-04T02:59:28.629Z,10.36
2022-09-04T03:00:44.571Z,10.30
2022-09-04T03:02:00.638Z,10.33
2022-09-04T03:03:19.504Z,10.33
2022-09-04T03:04:41.422Z,10.31
2022-09-04T03:06:00.479Z,10.32
2022-09-04T03:07:10.361Z,10.30
2022-09-04T03:08:22.814Z,10.31
2022-09-04T03:09:35.507Z,10.31
2022-09-04T03:10:44.603Z,10.27
2022-09-04T03:11:52.843Z,10.27
2022-09-04T03:13:05.887Z,10.26
2022-09-04T03:14:21.409Z,10.26
2022-09-04T03:15:39.921Z,10.27
2022-09-04T03:16:52.543Z,10.25
2022-09-04T03:18:02.568Z,10.26
2022-09-04T03:19:41.119Z,10.26
2022-09-04T03:20:54.137Z,10.23
2022-09-04T03:22:10.127Z,10.23
2022-09-04T03:23:22.961Z,10.20
2022-09-04T03:24:32.828Z,10.19
2022-09-04T03:26:04.652Z,10.19
2022-09-04T03:27:13.188Z,10.20
2022-09-04T03:28:42.654Z,10.25
2022-09-04T03:30:01.611Z,10.28
2022-09-04T03:31:31.017Z,10.29
2022-09-04T03:32:57.429Z,10.28
2022-09-04T03:34:39.696Z,10.45
2022-09-04T03:35:52.653Z,10.45
2022-09-04T03:37:09.035Z,10.70
2022-09-04T03:38:36.421Z,11.08
2022-09-04T03:40:09.131Z,11.32
2022-09-04T03:41:31.076Z,11.32
2022-09-04T03:42:49.967Z,11.91
2022-09-04T03:44:05.881Z,11.91
2022-09-04T03:45:12.795Z,12.15
2022-09-04T03:46:53.192Z,12.52
2022-09-04T03:48:19.379Z,12.81
2022-09-04T03:49:40.701Z,12.97
2022-09-04T03:51:03.049Z,13.13
2022-09-04T03:52:36.996Z,13.33
2022-09-04T03:54:02.131Z,13.54
2022-09-04T03:55:25.526Z,13.54
2022-09-04T03:56:38.695Z,14.01
2022-09-04T03:58:05.571Z,14.15
2022-09-04T03:59:15.101Z,14.15
2022-09-04T04:00:22.524Z,14.30
2022-09-04T04:01:41.346Z,14.47
2022-09-04T04:03:10.870Z,14.51
2022-09-04T04:04:49.403Z,14.74
2022-09-04T04:06:03.663Z,14.75
2022-09-04T04:07:39.134Z,14.87
2022-09-04T04:09:03.754Z,14.87
2022-09-04T04:10:11.225Z,15.12
2022-09-04T04:11:32.865Z,15.24
2022-09-04T04:12:59.378Z,15.32
2022-09-04T04:14:24.340Z,15.32
2022-09-04T04:15:53.571Z,15.54
2022-09-04T04:17:20.675Z,15.55
2022-09-04T04:18:36.232Z,15.76
2022-09-04T04:20:02.515Z,15.76
2022-09-04T04:21:24.198Z,16.04
2022-09-04T04:22:36.359Z,16.27
2022-09-04T04:24:02.389Z,16.27
2022-09-04T04:25:21.021Z,16.49
2022-09-04T04:26:46.014Z,16.68
2022-09-04T04:27:58.550Z,16.65
2022-09-04T04:29:09.331Z,16.72
2022-09-04T04:30:17.572Z,16.81
2022-09-04T04:31:43.696Z,16.97
2022-09-04T04:33:09.832Z,17.06
2022-09-04T04:34:28.627Z,17.20
2022-09-04T04:35:52.042Z,17.20
2022-09-04T04:37:13.732Z,17.01
2022-09-04T04:38:34.891Z,17.09
2022-09-04T04:39:41.933Z,17.08
2022-09-04T04:41:09.819Z,17.21
2022-09-04T04:42:37.644Z,17.32
2022-09-04T04:43:53.321Z,17.46
2022-09-04T04:45:18.269Z,17.46
2022-09-04T04:46:43.631Z,17.43
2022-09-04T04:48:23.404Z,17.65
2022-09-04T04:50:04.735Z,17.65
2022-09-04T04:51:33.571Z,16.98
2022-09-04T04:52:51.852Z,16.98
2022-09-04T04:54:13.662Z,17.60
2022-09-04T04:55:25.939Z,17.70
2022-09-04T04:56:59.938Z,17.71
2022-09-04T04:58:21.521Z,17.77
2022-09-04T04:59:45.086Z,17.82
2022-09-04T05:01:14.497Z,17.75
2022-09-04T05:02:21.709Z,17.90
2022-09-04T05:03:31.533Z,17.95
2022-09-04T05:04:59.713Z,17.96
2022-09-04T05:06:12.521Z,17.96
2022-09-04T05:07:28.126Z,17.83
2022-09-04T05:08:40.899Z,17.75
2022-09-04T05:10:02.537Z,17.75
2022-09-04T05:11:28.522Z,17.77
2022-09-04T05:12:35.492Z,17.81
2022-09-04T05:13:54.346Z,17.81
2022-09-04T05:15:04.219Z,17.83
2022-09-04T05:16:28.112Z,17.78
2022-09-04T05:17:40.997Z,17.79
2022-09-04T05:18:59.672Z,17.62
2022-09-04T05:20:16.972Z,17.73
2022-09-04T05:21:24.012Z,17.73
2022-09-04T05:22:36.756Z,17.77
2022-09-04T05:23:43.783Z,17.84
2022-09-04T05:24:54.057Z,17.80
2022-09-04T05:26:01.992Z,17.80
2022-09-04T05:27:09.025Z,17.85
2022-09-04T05:28:37.096Z,17.85
2022-09-04T05:30:00.624Z,18.00
2022-09-04T05:31:16.661Z,18.02
2022-09-04T05:32:32.327Z,18.07
2022-09-04T05:33:55.897Z,18.13
2022-09-04T05:35:16.212Z,18.24
2022-09-04T05:36:28.854Z,18.27
2022-09-04T05:37:47.617Z,18.31
2022-09-04T05:39:17.369Z,18.31
2022-09-04T05:40:30.543Z,18.38
2022-09-04T05:41:43.228Z,18.47
2022-09-04T05:42:58.886Z,18.53
2022-09-04T05:44:32.911Z,18.59
2022-09-04T05:45:42.674Z,18.63
2022-09-04T05:47:13.556Z,18.63
2022-09-04T05:48:26.558Z,18.61
2022-09-04T05:49:45.681Z,18.61
2022-09-04T05:51:07.596Z,18.61
2022-09-04T05:52:34.044Z,18.61
2022-09-04T05:53:52.995Z,18.62
2022-09-04T05:55:21.190Z,18.71
2022-09-04T05:56:44.922Z,18.75
2022-09-04T05:58:08.321Z,18.79
2022-09-04T05:59:37.519Z,18.82
2022-09-04T06:01:07.424Z,18.82
2022-09-04T06:02:19.805Z,18.67
2022-09-04T06:03:45.024Z,18.67
2022-09-04T06:05:25.087Z,18.79
2022-09-04T06:06:50.331Z,18.80
2022-09-04T06:07:57.329Z,18.80
2022-09-04T06:09:04.425Z,18.76
2022-09-04T06:10:11.930Z,18.78
2022-09-04T06:11:40.024Z,18.78
2022-09-04T06:13:10.775Z,18.65
2022-09-04T06:14:48.470Z,18.64
2022-09-04T06:16:10.501Z,18.61
2022-09-04T06:17:29.515Z,18.50
2022-09-04T06:18:51.384Z,18.50
2022-09-04T06:20:10.315Z,18.49
2022-09-04T06:21:17.296Z,18.47
2022-09-04T06:22:32.995Z,18.47
2022-09-04T06:24:11.921Z,18.52
2022-09-04T06:25:23.490Z,18.61
2022-09-04T06:26:30.983Z,18.60
2022-09-04T06:27:55.804Z,18.60
2022-09-04T06:29:29.672Z,18.63
2022-09-04T06:31:00.715Z,18.61
2022-09-04T06:32:26.976Z,18.63
2022-09-04T06:33:42.918Z,18.12
2022-09-04T06:34:58.910Z,18.53
2022-09-04T06:36:23.459Z,18.51
2022-09-04T06:37:52.433Z,18.63
2022-09-04T06:39:24.770Z,18.71
2022-09-04T06:40:54.604Z,18.74
2022-09-04T06:42:19.319Z,18.79
2022-09-04T06:43:32.249Z,18.79
2022-09-04T06:44:39.263Z,18.84
2022-09-04T06:45:51.845Z,18.91
2022-09-04T06:47:00.629Z,18.91
2022-09-04T06:48:10.503Z,18.91
2022-09-04T06:49:26.467Z,18.91
2022-09-04T06:50:36.475Z,18.97
2022-09-04T06:52:02.853Z,18.94
2022-09-04T06:53:09.847Z,18.94
2022-09-04T06:54:36.738Z,19.09
2022-09-04T06:56:03.523Z,19.11
2022-09-04T06:57:16.215Z,18.98
2022-09-04T06:58:29.103Z,19.13
2022-09-04T06:59:53.807Z,19.13
2022-09-04T07:01:06.678Z,19.14
2022-09-04T07:02:16.395Z,19.24
2022-09-04T07:03:29.133Z,19.23
2022-09-04T07:05:01.249Z,19.23
2022-09-04T07:06:32.055Z,19.37
2022-09-04T07:07:39.065Z,19.42
2022-09-04T07:08:46.061Z,19.42
2022-09-04T07:10:01.564Z,19.36
2022-09-04T07:11:19.459Z,19.36
2022-09-04T07:12:26.463Z,19.44
2022-09-04T07:13:39.441Z,19.45
2022-09-04T07:14:55.231Z,19.46
2022-09-04T07:16:22.925Z,19.41
2022-09-04T07:18:01.252Z,19.48
2022-09-04T07:19:26.175Z,19.60
2022-09-04T07:20:35.795Z,19.62
2022-09-04T07:21:51.751Z,19.61
2022-09-04T07:23:10.830Z,19.61
2022-09-04T07:24:50.896Z,19.64
2022-09-04T07:26:14.236Z,19.64
2022-09-04T07:27:48.285Z,19.78
2022-09-04T07:29:16.109Z,19.79
2022-09-04T07:30:21.036Z,19.76
2022-09-04T07:31:31.076Z,19.65
2022-09-04T07:32:54.564Z,19.61
2022-09-04T07:34:10.391Z,19.61
2022-09-04T07:35:35.241Z,19.60
2022-09-04T07:37:00.564Z,19.64
2022-09-04T07:38:13.464Z,19.72
2022-09-04T07:39:31.945Z,19.78
2022-09-04T07:42:53.080Z,19.72
2022-09-04T07:44:11.751Z,19.48
2022-09-04T07:45:38.151Z,19.55
2022-09-04T07:47:01.432Z,19.57
2022-09-04T07:48:24.894Z,19.53
2022-09-04T07:49:34.769Z,19.57
2022-09-04T07:50:44.651Z,19.65
2022-09-04T07:51:58.139Z,19.72
2022-09-04T07:53:11.483Z,19.87
2022-09-04T07:54:23.022Z,19.98
2022-09-04T07:55:47.528Z,19.98
2022-09-04T07:57:12.092Z,20.19
2022-09-04T07:58:34.177Z,20.27
2022-09-04T07:59:44.183Z,20.21
2022-09-04T08:01:10.899Z,20.20
2022-09-04T08:02:29.880Z,20.20
2022-09-04T08:04:09.951Z,20.10
2022-09-04T08:05:24.240Z,20.10
2022-09-04T08:06:37.782Z,19.69
2022-09-04T08:07:50.231Z,19.60
2022-09-04T08:09:28.625Z,19.45
2022-09-04T08:10:52.120Z,19.54
2022-09-04T08:12:04.645Z,19.54
2022-09-04T08:13:11.622Z,19.79
2022-09-04T08:14:42.737Z,19.92
2022-09-04T08:16:01.294Z,19.88
2022-09-04T08:17:33.664Z,19.88
2022-09-04T08:18:45.175Z,19.99
2022-09-04T08:19:55.339Z,19.96
2022-09-04T08:21:30.936Z,20.00
2022-09-04T08:22:59.056Z,20.00
2022-09-04T08:24:13.199Z,19.81
2022-09-04T08:25:44.269Z,19.82
2022-09-04T08:27:06.119Z,19.84
2022-09-04T08:28:22.261Z,19.85
2022-09-04T08:29:46.991Z,19.76
2022-09-04T08:30:59.629Z,19.76
2022-09-04T08:32:23.097Z,19.79
2022-09-04T08:33:46.478Z,19.93
2022-09-04T08:35:13.525Z,19.93
2022-09-04T08:36:23.801Z,20.03
2022-09-04T08:37:39.644Z,20.05
2022-09-04T08:38:49.435Z,20.06
2022-09-04T08:40:14.273Z,20.11
2022-09-04T08:41:33.956Z,20.26
2022-09-04T08:42:46.709Z,20.26
2022-09-04T08:44:02.766Z,20.59
2022-09-04T08:45:42.683Z,20.75
2022-09-04T08:47:02.032Z,20.75
2022-09-04T08:48:41.872Z,20.74
2022-09-04T08:49:48.946Z,20.58
2022-09-04T08:51:07.253Z,20.43
2022-09-04T08:52:14.638Z,20.26
2022-09-04T08:53:24.430Z,20.17
2022-09-04T08:55:06.685Z,20.02
2022-09-04T08:56:28.742Z,19.90
2022-09-04T08:57:50.405Z,19.75
2022-09-04T08:59:03.365Z,19.75
2022-09-04T09:00:19.245Z,19.74
2022-09-04T09:01:59.111Z,19.81
2022-09-04T09:05:17.947Z,20.05
2022-09-04T09:06:44.408Z,19.99
2022-09-04T09:07:51.403Z,20.18
2022-09-04T09:09:31.621Z,20.07
2022-09-04T09:10:50.577Z,20.00
2022-09-04T09:12:06.040Z,20.05
2022-09-04T09:13:24.645Z,19.98
2022-09-04T09:14:49.857Z,19.90
2022-09-04T09:16:12.935Z,19.85
2022-09-04T09:17:35.114Z,19.79
2022-09-04T09:19:06.125Z,19.75
2022-09-04T09:20:20.026Z,19.58
2022-09-04T09:21:55.984Z,19.48
2022-09-04T09:23:31.421Z,19.40
2022-09-04T09:24:56.575Z,19.37
2022-09-04T09:26:18.373Z,19.37
2022-09-04T09:27:40.054Z,19.26
2022-09-04T09:28:51.312Z,19.24
2022-09-04T09:30:17.626Z,19.29
2022-09-04T09:32:03.803Z,19.29
2022-09-04T09:33:28.585Z,19.42
2022-09-04T09:34:50.298Z,19.42
2022-09-04T09:36:23.660Z,19.40
2022-09-04T09:37:42.584Z,19.60
2022-09-04T09:39:11.787Z,19.60
2022-09-04T09:40:38.281Z,19.63
2022-09-04T09:41:50.960Z,19.76
2022-09-04T09:43:17.461Z,19.87
2022-09-04T09:44:44.261Z,20.05
2022-09-04T09:45:59.831Z,20.05
2022-09-04T09:47:38.541Z,20.04
2022-09-04T09:48:54.303Z,20.11
2022-09-04T09:50:19.283Z,20.20
2022-09-04T09:51:59.533Z,20.26
2022-09-04T09:53:27.255Z,20.36
2022-09-04T09:54:51.921Z,20.36
2022-09-04T09:56:00.148Z,20.35
2022-09-04T09:57:33.387Z,20.32
2022-09-04T09:58:48.314Z,20.46
2022-09-04T10:00:06.222Z,20.57
2022-09-04T10:01:21.740Z,20.62
2022-09-04T10:02:45.358Z,20.60
2022-09-04T10:04:34.204Z,20.60
2022-09-04T10:06:11.078Z,20.67
2022-09-04T10:07:46.661Z,20.76
2022-09-04T10:09:09.504Z,20.86
2022-09-04T10:10:22.021Z,20.86
2022-09-04T10:11:50.083Z,20.75
2022-09-04T10:13:16.047Z,20.75
2022-09-04T10:14:34.748Z,20.68
2022-09-04T10:16:07.180Z,20.42
2022-09-04T10:17:22.997Z,20.28
2022-09-04T10:19:04.777Z,20.26
2022-09-04T10:20:29.765Z,20.30
2022-09-04T10:21:57.793Z,20.28
2022-09-04T10:23:20.694Z,20.28
2022-09-04T10:24:49.314Z,20.28
2022-09-04T10:26:10.455Z,20.31
2022-09-04T10:27:43.159Z,20.36
2022-09-04T10:29:04.998Z,20.46
2022-09-04T10:30:12.395Z,20.49
2022-09-04T10:31:34.438Z,20.42
2022-09-04T10:32:50.408Z,20.42
2022-09-04T10:34:32.163Z,20.48
2022-09-04T10:35:39.149Z,20.47
2022-09-04T10:37:05.367Z,20.47
2022-09-04T10:38:27.409Z,20.49
2022-09-04T10:39:38.574Z,20.54
2022-09-04T10:41:14.106Z,20.54
2022-09-04T10:42:36.779Z,20.61
2022-09-04T10:43:49.581Z,20.53
2022-09-04T10:45:00.307Z,20.47
2022-09-04T10:46:23.437Z,20.64
2022-09-04T10:47:36.495Z,19.64
2022-09-04T10:49:10.311Z,19.64
2022-09-04T10:50:20.216Z,20.74
2022-09-04T10:51:41.029Z,20.73
2022-09-04T10:53:18.366Z,20.73
2022-09-04T10:54:33.721Z,20.79
2022-09-04T10:55:49.531Z,21.00
2022-09-04T10:57:12.994Z,21.12
2022-09-04T10:58:20.024Z,21.19
2022-09-04T10:59:34.683Z,21.24
2022-09-04T11:00:44.821Z,21.23
2022-09-04T11:02:18.611Z,21.31
2022-09-04T11:03:34.521Z,21.32
2022-09-04T11:04:58.936Z,21.28
2022-09-04T11:06:17.342Z,21.23
2022-09-04T11:07:37.835Z,21.23
2022-09-04T11:08:59.556Z,20.90
2022-09-04T11:10:06.734Z,20.89
2022-09-04T11:11:30.151Z,20.81
2022-09-04T11:13:01.015Z,20.76
2022-09-04T11:14:16.699Z,20.76
2022-09-04T11:15:47.366Z,20.73
2022-09-04T11:17:12.511Z,20.64
2022-09-04T11:18:36.577Z,20.63
2022-09-04T11:20:16.171Z,20.72
2022-09-04T11:21:35.830Z,20.83
2022-09-04T11:22:57.999Z,20.90
2022-09-04T11:24:31.857Z,20.99
2022-09-04T11:25:41.398Z,21.04
2022-09-04T11:26:55.481Z,21.08
2022-09-04T11:28:16.792Z,21.10
2022-09-04T11:29:43.459Z,21.12
2022-09-04T11:30:50.525Z,21.12
2022-09-04T11:32:15.682Z,21.23
2022-09-04T11:33:28.584Z,21.33
2022-09-04T11:34:47.454Z,21.33
2022-09-04T11:36:15.640Z,21.38
2022-09-04T11:37:39.704Z,21.28
2022-09-04T11:39:03.028Z,21.25
2022-09-04T11:40:15.694Z,21.11
2022-09-04T11:41:22.701Z,21.11
2022-09-04T11:42:41.523Z,20.89
2022-09-04T11:44:03.471Z,20.89
2022-09-04T11:45:26.906Z,20.94
2022-09-04T11:46:40.060Z,20.94
2022-09-04T11:48:01.854Z,21.00
2022-09-04T11:49:14.884Z,21.02
2022-09-04T11:50:36.894Z,20.92
2022-09-04T11:52:16.879Z,20.90
2022-09-04T11:53:54.253Z,20.90
2022-09-04T11:55:04.296Z,20.66
2022-09-04T11:56:27.932Z,20.66
2022-09-04T11:57:54.431Z,20.55
2022-09-04T11:59:22.439Z,20.59
2022-09-04T12:00:30.683Z,20.61
2022-09-04T12:01:47.491Z,20.68
2022-09-04T12:03:16.813Z,20.68
2022-09-04T12:04:39.697Z,20.75
2022-09-04T12:06:15.617Z,20.76
2022-09-04T12:07:54.422Z,20.76
2022-09-04T12:09:23.741Z,20.67
2022-09-04T12:10:47.093Z,20.67
2022-09-04T12:12:12.029Z,20.52
2022-09-04T12:13:42.848Z,20.52
2022-09-04T12:15:07.548Z,20.55
2022-09-04T12:16:18.851Z,20.55
2022-09-04T12:17:43.675Z,20.44
2022-09-04T12:19:15.830Z,20.44
2022-09-04T12:20:41.778Z,20.41
2022-09-04T12:22:00.671Z,20.38
2022-09-04T12:23:19.427Z,20.38
2022-09-04T12:24:38.135Z,20.38
2022-09-04T12:26:07.280Z,20.37
2022-09-04T12:27:33.643Z,20.53
2022-09-04T12:28:43.303Z,20.63
2022-09-04T12:30:12.440Z,20.63
2022-09-04T12:31:25.309Z,20.72
2022-09-04T12:32:32.426Z,20.74
2022-09-04T12:33:48.396Z,20.84
2022-09-04T12:35:15.532Z,20.75
2022-09-04T12:36:25.450Z,20.75
2022-09-04T12:37:52.460Z,20.69
2022-09-04T12:39:13.688Z,20.61
2022-09-04T12:40:49.599Z,20.65
2022-09-04T12:42:14.458Z,20.65
2022-09-04T12:43:47.039Z,20.45
2022-09-04T12:44:59.633Z,20.45
2022-09-04T12:46:42.589Z,20.26
2022-09-04T12:48:05.750Z,20.20
2022-09-04T12:49:15.497Z,20.03
2022-09-04T12:50:34.609Z,19.94
2022-09-04T12:51:48.473Z,19.90
2022-09-04T12:53:04.285Z,19.90
2022-09-04T12:54:28.309Z,19.79
2022-09-04T12:55:54.785Z,19.79
2022-09-04T12:57:20.799Z,19.78
2022-09-04T12:58:40.924Z,19.76
2022-09-04T13:00:02.707Z,19.78
2022-09-04T13:01:09.891Z,19.78
2022-09-04T13:02:34.864Z,19.92
2022-09-04T13:04:06.034Z,19.99
2022-09-04T13:05:32.276Z,20.04
2022-09-04T13:06:56.169Z,20.04
2022-09-04T13:08:06.070Z,20.14
2022-09-04T13:09:28.978Z,20.26
2022-09-04T13:10:38.624Z,20.26
2022-09-04T13:12:00.611Z,20.32
2022-09-04T13:13:22.637Z,20.23
2022-09-04T13:15:05.823Z,20.21
2022-09-04T13:16:33.012Z,20.20
2022-09-04T13:18:08.505Z,20.20
2022-09-04T13:19:43.741Z,20.34
2022-09-04T13:21:13.100Z,20.40
2022-09-04T13:22:39.581Z,20.42
2022-09-04T13:23:55.387Z,20.42
2022-09-04T13:25:26.419Z,20.55
2022-09-04T13:26:34.196Z,20.55
2022-09-04T13:27:59.079Z,20.51
2022-09-04T13:29:11.888Z,20.51
2022-09-04T13:30:24.458Z,20.62
2022-09-04T13:31:34.604Z,20.56
2022-09-04T13:32:59.521Z,20.49
2022-09-04T13:34:06.540Z,20.49
2022-09-04T13:35:36.487Z,20.48
2022-09-04T13:36:58.653Z,20.53
2022-09-04T13:38:23.464Z,20.51
2022-09-04T13:40:03.542Z,20.52
2022-09-04T13:41:30.530Z,20.52
2022-09-04T13:42:52.575Z,20.53
2022-09-04T13:44:02.320Z,20.59
2022-09-04T13:45:12.027Z,20.54
2022-09-04T13:46:19.387Z,20.54
2022-09-04T13:47:33.151Z,20.57
2022-09-04T13:49:00.613Z,20.57
2022-09-04T13:50:07.611Z,20.57
2022-09-04T13:51:29.335Z,20.57
2022-09-04T13:52:29.034Z,20.48
2022-09-04T13:53:38.855Z,20.42
2022-09-04T13:54:51.730Z,20.28
2022-09-04T13:55:58.738Z,20.26
2022-09-04T13:57:11.602Z,20.26
2022-09-04T13:58:18.642Z,20.18
2022-09-04T13:59:23.875Z,20.18
2022-09-04T14:00:31.764Z,20.02
2022-09-04T14:01:42.236Z,20.02
2022-09-04T14:02:48.802Z,19.96
2022-09-04T14:03:58.642Z,19.96
2022-09-04T14:05:18.787Z,19.92
2022-09-04T14:06:25.563Z,19.92
2022-09-04T14:07:32.675Z,19.89
2022-09-04T14:08:41.028Z,19.89
2022-09-04T14:09:47.797Z,19.85
2022-09-04T14:10:57.847Z,19.85
2022-09-04T14:12:18.463Z,19.87
2022-09-04T14:13:34.972Z,19.88
2022-09-04T14:14:59.773Z,19.89
2022-09-04T14:16:06.529Z,19.88
2022-09-04T14:17:11.086Z,19.96
2022-09-04T14:18:24.144Z,19.95
2022-09-04T14:19:41.878Z,19.95
2022-09-04T14:21:03.461Z,19.95
2022-09-04T14:23:45.292Z,20.03
2022-09-04T14:25:06.752Z,20.10
2022-09-04T14:26:12.689Z,20.12
2022-09-04T14:27:37.802Z,20.11
2022-09-04T14:28:50.783Z,20.11
2022-09-04T14:30:05.246Z,20.10
2022-09-04T14:31:34.044Z,20.10
2022-09-04T14:32:06.706Z,19.95
2022-09-04T14:32:54.556Z,20.10
2022-09-04T14:34:06.336Z,20.09
2022-09-04T14:35:35.316Z,20.09
2022-09-04T14:36:42.650Z,19.97
2022-09-04T14:38:12.706Z,19.97
2022-09-04T14:39:25.768Z,19.85
2022-09-04T14:40:35.864Z,19.77
2022-09-04T14:41:55.019Z,19.79
2022-09-04T14:43:06.295Z,19.79
2022-09-04T14:44:26.520Z,19.79
2022-09-04T14:45:52.773Z,19.79
2022-09-04T14:47:07.269Z,19.76
2022-09-04T14:48:13.212Z,19.70
2022-09-04T14:49:20.229Z,19.72
2022-09-04T14:50:27.785Z,19.67
2022-09-04T14:51:40.719Z,19.69
2022-09-04T14:52:50.790Z,19.65
2022-09-04T14:53:55.321Z,19.64
2022-09-04T14:55:00.764Z,19.64
2022-09-04T14:56:13.256Z,19.61
2022-09-04T14:57:23.230Z,19.62
2022-09-04T14:58:30.243Z,19.62
2022-09-04T14:59:39.243Z,19.58
2022-09-04T15:01:05.838Z,19.54
2022-09-04T15:02:12.869Z,19.58
2022-09-04T15:03:21.472Z,19.58
2022-09-04T15:04:32.525Z,19.57
2022-09-04T15:05:52.327Z,19.51
2022-09-04T15:07:11.358Z,19.51
2022-09-04T15:08:10.093Z,19.53
2022-09-04T15:09:30.411Z,19.53
2022-09-04T15:10:37.970Z,19.49
2022-09-04T15:11:46.448Z,19.47
2022-09-04T15:13:17.071Z,19.47
2022-09-04T15:14:29.760Z,19.48
2022-09-04T15:15:39.515Z,19.47
2022-09-04T15:16:46.687Z,19.46
2022-09-04T15:18:11.589Z,19.45
2022-09-04T15:19:48.710Z,19.45
2022-09-04T15:21:03.567Z,19.39
2022-09-04T15:22:10.571Z,19.37
2022-09-04T15:23:33.896Z,19.37
2022-09-04T15:24:40.833Z,19.30
2022-09-04T15:25:58.804Z,19.30
2022-09-04T15:27:23.770Z,19.34
2022-09-04T15:28:51.650Z,19.33
2022-09-04T15:29:58.650Z,19.33
2022-09-04T15:31:16.481Z,19.33
2022-09-04T15:32:26.786Z,19.26
2022-09-04T15:33:31.716Z,19.27
2022-09-04T15:34:37.206Z,19.23
2022-09-04T15:35:41.607Z,19.24
2022-09-04T15:36:47.435Z,19.22
2022-09-04T15:37:54.421Z,19.23
2022-09-04T15:39:03.765Z,19.23
2022-09-04T15:40:13.554Z,19.21
2022-09-04T15:41:41.486Z,19.17
2022-09-04T15:42:47.854Z,19.18
2022-09-04T15:44:15.524Z,19.16
2022-09-04T15:45:25.281Z,19.13
2022-09-04T15:46:46.984Z,19.11
2022-09-04T15:48:05.365Z,19.07
2022-09-04T15:49:21.231Z,19.06
2022-09-04T15:50:28.108Z,19.04
2022-09-04T15:51:49.908Z,18.99
2022-09-04T15:52:57.004Z,18.98
2022-09-04T15:54:15.909Z,18.92
2022-09-04T15:55:35.166Z,18.95
2022-09-04T15:56:45.108Z,18.93
2022-09-04T15:58:09.961Z,18.93
2022-09-04T15:59:22.534Z,18.89
2022-09-04T16:00:28.949Z,18.84
2022-09-04T16:01:38.604Z,18.83
2022-09-04T16:02:51.518Z,18.79
2022-09-04T16:04:04.272Z,18.79
2022-09-04T16:05:14.041Z,18.77
2022-09-04T16:06:22.229Z,18.76
2022-09-04T16:07:37.962Z,18.76
2022-09-04T16:08:48.080Z,18.72
2022-09-04T16:09:58.090Z,18.68
2022-09-04T16:11:05.218Z,18.68
2022-09-04T16:12:33.437Z,18.66
2022-09-04T16:13:48.471Z,18.59
2022-09-04T16:14:55.474Z,18.57
2022-09-04T16:16:18.802Z,18.52
2022-09-04T16:17:26.141Z,18.49
2022-09-04T16:18:41.827Z,18.45
2022-09-04T16:19:57.559Z,18.45
2022-09-04T16:21:04.594Z,18.41
2022-09-04T16:22:20.224Z,18.38
2022-09-04T16:23:35.927Z,18.38
2022-09-04T16:24:45.712Z,18.31
2022-09-04T16:25:50.764Z,18.30
2022-09-04T16:26:55.965Z,18.27
2022-09-04T16:28:28.594Z,18.26
2022-09-04T16:29:50.646Z,18.24
2022-09-04T16:31:04.215Z,18.19
2022-09-04T16:32:12.828Z,18.17
2022-09-04T16:33:28.109Z,18.14
2022-09-04T16:34:37.139Z,18.11
2022-09-04T16:35:43.364Z,18.11
2022-09-04T16:36:50.418Z,18.06
2022-09-04T16:38:00.180Z,18.04
2022-09-04T16:39:14.551Z,18.01
2022-09-04T16:40:34.017Z,18.01
2022-09-04T16:41:41.064Z,17.98
2022-09-04T16:42:51.392Z,17.96
2022-09-04T16:44:16.490Z,17.96
2022-09-04T16:45:28.181Z,17.93
2022-09-04T16:46:34.729Z,17.87
2022-09-04T16:47:47.431Z,17.84
2022-09-04T16:48:57.117Z,17.82
2022-09-04T16:50:09.996Z,17.80
2022-09-04T16:51:40.748Z,17.77
2022-09-04T16:52:34.160Z,17.74
2022-09-04T16:53:51.981Z,17.69
2022-09-04T16:54:58.511Z,17.67
2022-09-04T16:56:05.519Z,17.67
2022-09-04T16:57:18.294Z,17.59
2022-09-04T16:58:29.889Z,17.57
2022-09-04T16:59:53.236Z,17.52
2022-09-04T17:01:15.860Z,17.52
2022-09-04T17:02:47.830Z,17.45